sensor_id;sensor_type;location;lat;lon;timestamp;P1;durP1;ratioP1;P2;durP2;ratioP2
4724;SDS011;2376;53.544;10.226;2023-03-16T00:00:40;3.70;;;2.80;;
4724;SDS011;2376;53.544;10.226;2023-03-16T00:03:08;4.33;;;3.07;;
4724;SDS011;2376;53.544;10.226;2023-03-16T00:05:35;4.40;;;2.90;;
4724;SDS011;2376;53.544;10.226;2023-03-16T00:08:02;6.23;;;3.43;;
4724;SDS011;2376;53.544;10.226;2023-03-16T00:10:30;5.67;;;3.57;;
4724;SDS011;2376;53.544;10.226;2023-03-16T00:12:57;8.67;;;2.67;;
4724;SDS011;2376;53.544;10.226;2023-03-16T00:15:26;3.50;;;3.17;;
4724;SDS011;2376;53.544;10.226;2023-03-16T00:17:54;3.93;;;3.07;;
4724;SDS011;2376;53.544;10.226;2023-03-16T00:20:21;4.93;;;3.40;;
4724;SDS011;2376;53.544;10.226;2023-03-16T00:22:48;5.50;;;2.90;;
4724;SDS011;2376;53.544;10.226;2023-03-16T00:25:15;11.93;;;3.23;;
4724;SDS011;2376;53.544;10.226;2023-03-16T00:27:43;4.00;;;2.87;;
4724;SDS011;2376;53.544;10.226;2023-03-16T00:30:11;8.37;;;4.00;;
4724;SDS011;2376;53.544;10.226;2023-03-16T00:32:38;6.80;;;2.80;;
4724;SDS011;2376;53.544;10.226;2023-03-16T00:35:05;3.63;;;2.63;;
4724;SDS011;2376;53.544;10.226;2023-03-16T00:37:33;5.30;;;2.77;;
4724;SDS011;2376;53.544;10.226;2023-03-16T00:40:00;4.93;;;2.60;;
4724;SDS011;2376;53.544;10.226;2023-03-16T00:42:31;7.07;;;3.20;;
4724;SDS011;2376;53.544;10.226;2023-03-16T00:45:00;3.93;;;3.10;;
4724;SDS011;2376;53.544;10.226;2023-03-16T00:47:27;8.40;;;3.27;;
4724;SDS011;2376;53.544;10.226;2023-03-16T00:49:55;8.50;;;2.97;;
4724;SDS011;2376;53.544;10.226;2023-03-16T00:52:23;3.10;;;2.40;;
4724;SDS011;2376;53.544;10.226;2023-03-16T00:54:51;5.30;;;2.47;;
4724;SDS011;2376;53.544;10.226;2023-03-16T00:57:19;5.03;;;2.97;;
4724;SDS011;2376;53.544;10.226;2023-03-16T00:59:48;7.13;;;3.10;;
4724;SDS011;2376;53.544;10.226;2023-03-16T01:02:18;2.90;;;2.40;;
4724;SDS011;2376;53.544;10.226;2023-03-16T01:04:47;6.60;;;2.50;;
4724;SDS011;2376;53.544;10.226;2023-03-16T01:07:14;2.70;;;2.50;;
4724;SDS011;2376;53.544;10.226;2023-03-16T01:09:41;4.17;;;3.10;;
4724;SDS011;2376;53.544;10.226;2023-03-16T01:12:09;3.73;;;2.30;;
4724;SDS011;2376;53.544;10.226;2023-03-16T01:14:37;4.20;;;2.23;;
4724;SDS011;2376;53.544;10.226;2023-03-16T01:17:05;7.60;;;2.60;;
4724;SDS011;2376;53.544;10.226;2023-03-16T01:19:34;6.83;;;2.87;;
4724;SDS011;2376;53.544;10.226;2023-03-16T01:22:02;4.17;;;2.93;;
4724;SDS011;2376;53.544;10.226;2023-03-16T01:24:30;2.60;;;2.40;;
4724;SDS011;2376;53.544;10.226;2023-03-16T01:26:58;4.70;;;3.10;;
4724;SDS011;2376;53.544;10.226;2023-03-16T01:29:25;3.77;;;2.73;;
4724;SDS011;2376;53.544;10.226;2023-03-16T01:31:52;4.70;;;2.50;;
4724;SDS011;2376;53.544;10.226;2023-03-16T01:34:20;2.90;;;2.40;;
4724;SDS011;2376;53.544;10.226;2023-03-16T01:36:49;5.50;;;3.43;;
4724;SDS011;2376;53.544;10.226;2023-03-16T01:39:16;14.37;;;3.60;;
4724;SDS011;2376;53.544;10.226;2023-03-16T01:41:44;7.77;;;2.53;;
4724;SDS011;2376;53.544;10.226;2023-03-16T01:44:12;2.80;;;2.60;;
4724;SDS011;2376;53.544;10.226;2023-03-16T01:46:40;4.60;;;3.33;;
4724;SDS011;2376;53.544;10.226;2023-03-16T01:49:08;2.90;;;2.37;;
4724;SDS011;2376;53.544;10.226;2023-03-16T01:51:41;3.50;;;2.13;;
4724;SDS011;2376;53.544;10.226;2023-03-16T01:54:17;4.67;;;2.80;;
4724;SDS011;2376;53.544;10.226;2023-03-16T01:56:49;3.63;;;2.80;;
4724;SDS011;2376;53.544;10.226;2023-03-16T01:59:20;3.97;;;2.50;;
4724;SDS011;2376;53.544;10.226;2023-03-16T02:01:49;4.80;;;2.20;;
4724;SDS011;2376;53.544;10.226;2023-03-16T02:04:23;4.30;;;2.50;;
4724;SDS011;2376;53.544;10.226;2023-03-16T02:06:57;7.43;;;3.00;;
4724;SDS011;2376;53.544;10.226;2023-03-16T02:09:27;2.87;;;2.53;;
4724;SDS011;2376;53.544;10.226;2023-03-16T02:11:54;8.00;;;3.13;;
4724;SDS011;2376;53.544;10.226;2023-03-16T02:17:33;5.90;;;3.23;;
4724;SDS011;2376;53.544;10.226;2023-03-16T02:20:05;5.73;;;3.27;;
4724;SDS011;2376;53.544;10.226;2023-03-16T02:22:42;5.63;;;2.80;;
4724;SDS011;2376;53.544;10.226;2023-03-16T02:25:13;2.97;;;2.40;;
4724;SDS011;2376;53.544;10.226;2023-03-16T02:27:45;6.20;;;2.90;;
4724;SDS011;2376;53.544;10.226;2023-03-16T02:30:19;9.77;;;3.00;;
4724;SDS011;2376;53.544;10.226;2023-03-16T02:32:47;3.77;;;2.43;;
4724;SDS011;2376;53.544;10.226;2023-03-16T02:35:17;3.70;;;2.80;;
4724;SDS011;2376;53.544;10.226;2023-03-16T02:37:45;2.50;;;2.20;;
4724;SDS011;2376;53.544;10.226;2023-03-16T02:40:15;7.73;;;3.57;;
4724;SDS011;2376;53.544;10.226;2023-03-16T02:42:46;5.37;;;2.30;;
4724;SDS011;2376;53.544;10.226;2023-03-16T02:45:20;2.77;;;2.57;;
4724;SDS011;2376;53.544;10.226;2023-03-16T02:47:47;4.80;;;2.87;;
4724;SDS011;2376;53.544;10.226;2023-03-16T02:50:17;4.10;;;2.50;;
4724;SDS011;2376;53.544;10.226;2023-03-16T02:52:44;7.83;;;2.80;;
4724;SDS011;2376;53.544;10.226;2023-03-16T02:55:12;5.30;;;2.57;;
4724;SDS011;2376;53.544;10.226;2023-03-16T02:57:39;4.13;;;1.87;;
4724;SDS011;2376;53.544;10.226;2023-03-16T03:00:07;2.23;;;2.13;;
4724;SDS011;2376;53.544;10.226;2023-03-16T03:02:42;3.00;;;2.17;;
4724;SDS011;2376;53.544;10.226;2023-03-16T03:05:10;4.57;;;2.37;;
4724;SDS011;2376;53.544;10.226;2023-03-16T03:07:37;4.10;;;2.63;;
4724;SDS011;2376;53.544;10.226;2023-03-16T03:10:04;3.10;;;2.80;;
4724;SDS011;2376;53.544;10.226;2023-03-16T03:12:32;7.00;;;2.60;;
4724;SDS011;2376;53.544;10.226;2023-03-16T03:14:59;2.70;;;2.37;;
4724;SDS011;2376;53.544;10.226;2023-03-16T03:17:25;6.53;;;2.70;;
4724;SDS011;2376;53.544;10.226;2023-03-16T03:19:55;2.33;;;2.13;;
4724;SDS011;2376;53.544;10.226;2023-03-16T03:22:23;4.37;;;2.67;;
4724;SDS011;2376;53.544;10.226;2023-03-16T03:24:50;5.10;;;4.70;;
4724;SDS011;2376;53.544;10.226;2023-03-16T03:27:17;3.40;;;3.20;;
4724;SDS011;2376;53.544;10.226;2023-03-16T03:29:44;3.23;;;2.80;;
4724;SDS011;2376;53.544;10.226;2023-03-16T03:32:11;5.20;;;2.70;;
4724;SDS011;2376;53.544;10.226;2023-03-16T03:34:38;3.00;;;2.17;;
4724;SDS011;2376;53.544;10.226;2023-03-16T03:37:07;4.40;;;3.37;;
4724;SDS011;2376;53.544;10.226;2023-03-16T03:39:34;2.60;;;2.30;;
4724;SDS011;2376;53.544;10.226;2023-03-16T03:42:03;4.17;;;2.60;;
4724;SDS011;2376;53.544;10.226;2023-03-16T03:44:30;5.67;;;2.40;;
4724;SDS011;2376;53.544;10.226;2023-03-16T03:46:58;6.00;;;2.80;;
4724;SDS011;2376;53.544;10.226;2023-03-16T03:49:25;3.50;;;2.57;;
4724;SDS011;2376;53.544;10.226;2023-03-16T03:51:52;6.23;;;2.77;;
4724;SDS011;2376;53.544;10.226;2023-03-16T03:54:21;5.63;;;2.43;;
4724;SDS011;2376;53.544;10.226;2023-03-16T03:56:47;4.37;;;2.67;;
4724;SDS011;2376;53.544;10.226;2023-03-16T03:59:14;4.10;;;2.37;;
4724;SDS011;2376;53.544;10.226;2023-03-16T04:01:41;2.50;;;2.20;;
4724;SDS011;2376;53.544;10.226;2023-03-16T04:04:08;3.10;;;2.47;;
4724;SDS011;2376;53.544;10.226;2023-03-16T04:06:35;5.47;;;3.27;;
4724;SDS011;2376;53.544;10.226;2023-03-16T04:09:01;6.80;;;2.27;;
4724;SDS011;2376;53.544;10.226;2023-03-16T04:11:30;4.10;;;2.40;;
4724;SDS011;2376;53.544;10.226;2023-03-16T04:13:57;5.00;;;3.10;;
4724;SDS011;2376;53.544;10.226;2023-03-16T04:16:24;4.57;;;2.80;;
4724;SDS011;2376;53.544;10.226;2023-03-16T04:18:51;3.77;;;2.30;;
4724;SDS011;2376;53.544;10.226;2023-03-16T04:21:19;6.70;;;2.60;;
4724;SDS011;2376;53.544;10.226;2023-03-16T04:23:46;3.27;;;2.97;;
4724;SDS011;2376;53.544;10.226;2023-03-16T04:26:13;3.43;;;2.93;;
4724;SDS011;2376;53.544;10.226;2023-03-16T04:28:43;2.70;;;2.30;;
4724;SDS011;2376;53.544;10.226;2023-03-16T04:31:10;4.77;;;2.60;;
4724;SDS011;2376;53.544;10.226;2023-03-16T04:33:37;5.07;;;1.90;;
4724;SDS011;2376;53.544;10.226;2023-03-16T04:36:06;6.87;;;3.03;;
4724;SDS011;2376;53.544;10.226;2023-03-16T04:38:34;10.53;;;2.73;;
4724;SDS011;2376;53.544;10.226;2023-03-16T04:41:02;2.70;;;2.30;;
4724;SDS011;2376;53.544;10.226;2023-03-16T04:43:30;2.70;;;2.50;;
4724;SDS011;2376;53.544;10.226;2023-03-16T04:45:59;2.53;;;2.33;;
4724;SDS011;2376;53.544;10.226;2023-03-16T04:48:26;5.33;;;2.50;;
4724;SDS011;2376;53.544;10.226;2023-03-16T04:50:53;5.57;;;2.50;;
4724;SDS011;2376;53.544;10.226;2023-03-16T04:53:20;2.67;;;2.40;;
4724;SDS011;2376;53.544;10.226;2023-03-16T04:55:47;2.53;;;2.20;;
4724;SDS011;2376;53.544;10.226;2023-03-16T04:58:14;3.83;;;2.10;;
4724;SDS011;2376;53.544;10.226;2023-03-16T05:00:41;4.43;;;2.80;;
4724;SDS011;2376;53.544;10.226;2023-03-16T05:03:09;2.80;;;2.37;;
4724;SDS011;2376;53.544;10.226;2023-03-16T05:05:36;2.50;;;2.40;;
4724;SDS011;2376;53.544;10.226;2023-03-16T05:08:03;4.53;;;2.30;;
4724;SDS011;2376;53.544;10.226;2023-03-16T05:10:30;2.67;;;2.33;;
4724;SDS011;2376;53.544;10.226;2023-03-16T05:12:57;2.30;;;2.20;;
4724;SDS011;2376;53.544;10.226;2023-03-16T05:15:24;2.23;;;2.13;;
4724;SDS011;2376;53.544;10.226;2023-03-16T05:17:51;2.57;;;1.97;;
4724;SDS011;2376;53.544;10.226;2023-03-16T05:20:21;2.83;;;2.40;;
4724;SDS011;2376;53.544;10.226;2023-03-16T05:22:48;2.30;;;2.20;;
4724;SDS011;2376;53.544;10.226;2023-03-16T05:25:16;1.87;;;1.70;;
4724;SDS011;2376;53.544;10.226;2023-03-16T05:27:43;2.40;;;2.00;;
4724;SDS011;2376;53.544;10.226;2023-03-16T05:30:11;11.17;;;2.70;;
4724;SDS011;2376;53.544;10.226;2023-03-16T05:32:40;2.50;;;2.30;;
4724;SDS011;2376;53.544;10.226;2023-03-16T05:35:07;2.10;;;1.93;;
4724;SDS011;2376;53.544;10.226;2023-03-16T05:37:38;3.00;;;2.10;;
4724;SDS011;2376;53.544;10.226;2023-03-16T05:40:06;4.50;;;1.80;;
4724;SDS011;2376;53.544;10.226;2023-03-16T05:42:38;3.03;;;2.37;;
4724;SDS011;2376;53.544;10.226;2023-03-16T05:45:05;2.10;;;1.90;;
4724;SDS011;2376;53.544;10.226;2023-03-16T05:47:32;2.50;;;1.90;;
4724;SDS011;2376;53.544;10.226;2023-03-16T05:50:00;6.60;;;2.50;;
4724;SDS011;2376;53.544;10.226;2023-03-16T05:52:27;4.00;;;2.30;;
4724;SDS011;2376;53.544;10.226;2023-03-16T05:54:55;2.80;;;1.77;;
4724;SDS011;2376;53.544;10.226;2023-03-16T05:57:22;3.07;;;1.90;;
4724;SDS011;2376;53.544;10.226;2023-03-16T05:59:49;8.23;;;2.47;;
4724;SDS011;2376;53.544;10.226;2023-03-16T06:02:16;3.23;;;2.47;;
4724;SDS011;2376;53.544;10.226;2023-03-16T06:04:43;4.57;;;2.97;;
4724;SDS011;2376;53.544;10.226;2023-03-16T06:07:10;5.50;;;2.17;;
4724;SDS011;2376;53.544;10.226;2023-03-16T06:09:37;2.90;;;2.70;;
4724;SDS011;2376;53.544;10.226;2023-03-16T06:12:06;5.13;;;2.30;;
4724;SDS011;2376;53.544;10.226;2023-03-16T06:14:33;4.80;;;2.53;;
4724;SDS011;2376;53.544;10.226;2023-03-16T06:17:00;5.27;;;2.53;;
4724;SDS011;2376;53.544;10.226;2023-03-16T06:19:27;4.87;;;2.47;;
4724;SDS011;2376;53.544;10.226;2023-03-16T06:21:54;5.53;;;1.90;;
4724;SDS011;2376;53.544;10.226;2023-03-16T06:24:21;2.20;;;1.80;;
4724;SDS011;2376;53.544;10.226;2023-03-16T06:26:47;8.30;;;2.90;;
4724;SDS011;2376;53.544;10.226;2023-03-16T06:29:15;2.90;;;2.40;;
4724;SDS011;2376;53.544;10.226;2023-03-16T06:31:42;2.50;;;2.27;;
4724;SDS011;2376;53.544;10.226;2023-03-16T06:34:09;4.30;;;2.77;;
4724;SDS011;2376;53.544;10.226;2023-03-16T06:36:36;2.00;;;1.90;;
4724;SDS011;2376;53.544;10.226;2023-03-16T06:39:03;7.33;;;2.47;;
4724;SDS011;2376;53.544;10.226;2023-03-16T06:41:30;3.47;;;2.20;;
4724;SDS011;2376;53.544;10.226;2023-03-16T06:43:58;2.87;;;1.93;;
4724;SDS011;2376;53.544;10.226;2023-03-16T06:46:26;3.73;;;2.00;;
4724;SDS011;2376;53.544;10.226;2023-03-16T06:48:54;3.20;;;2.30;;
4724;SDS011;2376;53.544;10.226;2023-03-16T06:51:20;2.80;;;1.93;;
4724;SDS011;2376;53.544;10.226;2023-03-16T06:53:47;4.83;;;1.97;;
4724;SDS011;2376;53.544;10.226;2023-03-16T06:56:14;6.13;;;2.40;;
4724;SDS011;2376;53.544;10.226;2023-03-16T06:58:41;4.27;;;1.73;;
4724;SDS011;2376;53.544;10.226;2023-03-16T07:01:09;3.20;;;1.77;;
4724;SDS011;2376;53.544;10.226;2023-03-16T07:03:37;3.00;;;2.57;;
4724;SDS011;2376;53.544;10.226;2023-03-16T07:06:04;7.80;;;1.80;;
4724;SDS011;2376;53.544;10.226;2023-03-16T07:08:32;3.77;;;1.80;;
4724;SDS011;2376;53.544;10.226;2023-03-16T07:10:59;7.77;;;2.10;;
4724;SDS011;2376;53.544;10.226;2023-03-16T07:13:26;2.53;;;2.33;;
4724;SDS011;2376;53.544;10.226;2023-03-16T07:15:53;3.23;;;2.07;;
4724;SDS011;2376;53.544;10.226;2023-03-16T07:18:20;1.80;;;1.70;;
4724;SDS011;2376;53.544;10.226;2023-03-16T07:20:48;5.67;;;1.90;;
4724;SDS011;2376;53.544;10.226;2023-03-16T07:23:15;3.30;;;2.70;;
4724;SDS011;2376;53.544;10.226;2023-03-16T07:25:42;4.00;;;2.30;;
4724;SDS011;2376;53.544;10.226;2023-03-16T07:28:10;3.30;;;2.00;;
4724;SDS011;2376;53.544;10.226;2023-03-16T07:30:36;3.30;;;1.93;;
4724;SDS011;2376;53.544;10.226;2023-03-16T07:33:03;5.47;;;2.97;;
4724;SDS011;2376;53.544;10.226;2023-03-16T07:35:30;2.60;;;1.73;;
4724;SDS011;2376;53.544;10.226;2023-03-16T07:37:58;2.33;;;2.20;;
4724;SDS011;2376;53.544;10.226;2023-03-16T07:40:25;6.00;;;1.83;;
4724;SDS011;2376;53.544;10.226;2023-03-16T07:42:52;5.20;;;2.10;;
4724;SDS011;2376;53.544;10.226;2023-03-16T07:45:19;2.83;;;1.97;;
4724;SDS011;2376;53.544;10.226;2023-03-16T07:47:46;4.23;;;2.40;;
4724;SDS011;2376;53.544;10.226;2023-03-16T07:50:13;5.77;;;2.23;;
4724;SDS011;2376;53.544;10.226;2023-03-16T07:52:40;9.17;;;2.70;;
4724;SDS011;2376;53.544;10.226;2023-03-16T07:55:09;2.57;;;2.07;;
4724;SDS011;2376;53.544;10.226;2023-03-16T07:57:36;2.43;;;2.23;;
4724;SDS011;2376;53.544;10.226;2023-03-16T08:00:04;5.73;;;2.00;;
4724;SDS011;2376;53.544;10.226;2023-03-16T08:02:31;2.47;;;2.00;;
4724;SDS011;2376;53.544;10.226;2023-03-16T08:04:58;4.53;;;2.57;;
4724;SDS011;2376;53.544;10.226;2023-03-16T08:07:25;1.90;;;1.80;;
4724;SDS011;2376;53.544;10.226;2023-03-16T08:09:52;4.50;;;2.20;;
4724;SDS011;2376;53.544;10.226;2023-03-16T08:12:20;3.80;;;2.23;;
4724;SDS011;2376;53.544;10.226;2023-03-16T08:14:47;4.23;;;2.00;;
4724;SDS011;2376;53.544;10.226;2023-03-16T08:17:14;2.50;;;2.30;;
4724;SDS011;2376;53.544;10.226;2023-03-16T08:19:40;7.90;;;2.50;;
4724;SDS011;2376;53.544;10.226;2023-03-16T08:22:07;2.50;;;2.23;;
4724;SDS011;2376;53.544;10.226;2023-03-16T08:24:34;2.53;;;2.20;;
4724;SDS011;2376;53.544;10.226;2023-03-16T08:27:01;5.10;;;2.03;;
4724;SDS011;2376;53.544;10.226;2023-03-16T08:29:30;4.50;;;1.60;;
4724;SDS011;2376;53.544;10.226;2023-03-16T08:32:01;8.63;;;2.00;;
4724;SDS011;2376;53.544;10.226;2023-03-16T08:34:28;2.33;;;2.10;;
4724;SDS011;2376;53.544;10.226;2023-03-16T08:36:55;4.90;;;2.10;;
4724;SDS011;2376;53.544;10.226;2023-03-16T08:39:23;3.23;;;1.70;;
4724;SDS011;2376;53.544;10.226;2023-03-16T08:41:50;2.03;;;1.70;;
4724;SDS011;2376;53.544;10.226;2023-03-16T08:44:18;2.20;;;2.00;;
4724;SDS011;2376;53.544;10.226;2023-03-16T08:46:46;1.70;;;1.60;;
4724;SDS011;2376;53.544;10.226;2023-03-16T08:49:13;3.57;;;1.60;;
4724;SDS011;2376;53.544;10.226;2023-03-16T08:51:41;5.00;;;1.97;;
4724;SDS011;2376;53.544;10.226;2023-03-16T08:54:08;2.17;;;2.00;;
4724;SDS011;2376;53.544;10.226;2023-03-16T08:56:34;3.90;;;2.10;;
4724;SDS011;2376;53.544;10.226;2023-03-16T08:59:01;5.13;;;2.70;;
4724;SDS011;2376;53.544;10.226;2023-03-16T09:01:29;1.97;;;1.60;;
4724;SDS011;2376;53.544;10.226;2023-03-16T09:03:57;4.07;;;2.13;;
4724;SDS011;2376;53.544;10.226;2023-03-16T09:06:25;4.40;;;2.27;;
4724;SDS011;2376;53.544;10.226;2023-03-16T09:08:52;2.43;;;2.17;;
4724;SDS011;2376;53.544;10.226;2023-03-16T09:11:20;1.90;;;1.37;;
4724;SDS011;2376;53.544;10.226;2023-03-16T09:13:47;1.70;;;1.60;;
4724;SDS011;2376;53.544;10.226;2023-03-16T09:16:14;2.10;;;1.80;;
4724;SDS011;2376;53.544;10.226;2023-03-16T09:18:41;3.53;;;1.40;;
4724;SDS011;2376;53.544;10.226;2023-03-16T09:21:10;2.70;;;1.83;;
4724;SDS011;2376;53.544;10.226;2023-03-16T09:23:38;1.30;;;1.20;;
4724;SDS011;2376;53.544;10.226;2023-03-16T09:26:06;1.70;;;1.30;;
4724;SDS011;2376;53.544;10.226;2023-03-16T09:28:34;3.30;;;1.40;;
4724;SDS011;2376;53.544;10.226;2023-03-16T09:31:02;4.73;;;1.50;;
4724;SDS011;2376;53.544;10.226;2023-03-16T09:33:29;3.70;;;1.43;;
4724;SDS011;2376;53.544;10.226;2023-03-16T09:35:58;1.40;;;1.30;;
4724;SDS011;2376;53.544;10.226;2023-03-16T09:38:27;4.43;;;1.40;;
4724;SDS011;2376;53.544;10.226;2023-03-16T09:40:56;2.63;;;1.43;;
4724;SDS011;2376;53.544;10.226;2023-03-16T09:43:31;1.20;;;1.10;;
4724;SDS011;2376;53.544;10.226;2023-03-16T09:46:11;2.20;;;1.57;;
4724;SDS011;2376;53.544;10.226;2023-03-16T09:48:46;4.03;;;1.40;;
4724;SDS011;2376;53.544;10.226;2023-03-16T09:51:16;1.53;;;1.43;;
4724;SDS011;2376;53.544;10.226;2023-03-16T09:53:49;2.03;;;1.57;;
4724;SDS011;2376;53.544;10.226;2023-03-16T09:56:21;7.83;;;1.40;;
4724;SDS011;2376;53.544;10.226;2023-03-16T09:58:54;1.77;;;1.40;;
4724;SDS011;2376;53.544;10.226;2023-03-16T10:01:29;2.53;;;1.47;;
4724;SDS011;2376;53.544;10.226;2023-03-16T10:04:07;5.23;;;1.63;;
4724;SDS011;2376;53.544;10.226;2023-03-16T10:06:43;2.60;;;1.30;;
4724;SDS011;2376;53.544;10.226;2023-03-16T10:09:20;3.07;;;1.13;;
4724;SDS011;2376;53.544;10.226;2023-03-16T10:11:56;4.97;;;1.30;;
4724;SDS011;2376;53.544;10.226;2023-03-16T10:14:28;2.90;;;1.37;;
4724;SDS011;2376;53.544;10.226;2023-03-16T10:17:04;10.90;;;1.50;;
4724;SDS011;2376;53.544;10.226;2023-03-16T10:19:36;2.10;;;1.00;;
4724;SDS011;2376;53.544;10.226;2023-03-16T10:22:10;3.07;;;1.30;;
4724;SDS011;2376;53.544;10.226;2023-03-16T10:24:47;1.67;;;1.40;;
4724;SDS011;2376;53.544;10.226;2023-03-16T10:27:24;1.00;;;1.00;;
4724;SDS011;2376;53.544;10.226;2023-03-16T10:29:54;3.33;;;1.43;;
4724;SDS011;2376;53.544;10.226;2023-03-16T10:32:21;2.60;;;2.23;;
4724;SDS011;2376;53.544;10.226;2023-03-16T10:34:53;2.93;;;1.37;;
4724;SDS011;2376;53.544;10.226;2023-03-16T10:37:23;5.80;;;1.30;;
4724;SDS011;2376;53.544;10.226;2023-03-16T10:39:53;6.10;;;1.87;;
4724;SDS011;2376;53.544;10.226;2023-03-16T10:42:21;2.60;;;1.10;;
4724;SDS011;2376;53.544;10.226;2023-03-16T10:44:55;2.60;;;0.90;;
4724;SDS011;2376;53.544;10.226;2023-03-16T10:47:23;1.10;;;1.00;;
4724;SDS011;2376;53.544;10.226;2023-03-16T10:49:54;2.80;;;1.30;;
4724;SDS011;2376;53.544;10.226;2023-03-16T10:52:22;1.00;;;1.00;;
4724;SDS011;2376;53.544;10.226;2023-03-16T10:54:57;0.97;;;0.97;;
4724;SDS011;2376;53.544;10.226;2023-03-16T10:57:26;1.37;;;1.10;;
4724;SDS011;2376;53.544;10.226;2023-03-16T10:59:59;3.50;;;1.30;;
4724;SDS011;2376;53.544;10.226;2023-03-16T11:02:40;1.20;;;1.10;;
4724;SDS011;2376;53.544;10.226;2023-03-16T11:05:11;1.97;;;1.17;;
4724;SDS011;2376;53.544;10.226;2023-03-16T11:07:46;3.47;;;1.13;;
4724;SDS011;2376;53.544;10.226;2023-03-16T11:10:23;3.30;;;0.97;;
4724;SDS011;2376;53.544;10.226;2023-03-16T11:12:54;1.80;;;1.10;;
4724;SDS011;2376;53.544;10.226;2023-03-16T11:15:26;3.90;;;1.07;;
4724;SDS011;2376;53.544;10.226;2023-03-16T11:18:02;2.87;;;0.87;;
4724;SDS011;2376;53.544;10.226;2023-03-16T11:20:29;1.00;;;0.77;;
4724;SDS011;2376;53.544;10.226;2023-03-16T11:22:58;0.90;;;0.90;;
4724;SDS011;2376;53.544;10.226;2023-03-16T11:25:30;2.43;;;1.20;;
4724;SDS011;2376;53.544;10.226;2023-03-16T11:28:05;1.17;;;0.70;;
4724;SDS011;2376;53.544;10.226;2023-03-16T11:30:40;3.00;;;1.33;;
4724;SDS011;2376;53.544;10.226;2023-03-16T11:33:12;1.23;;;0.97;;
4724;SDS011;2376;53.544;10.226;2023-03-16T11:35:42;2.03;;;0.90;;
4724;SDS011;2376;53.544;10.226;2023-03-16T11:38:15;1.00;;;0.90;;
4724;SDS011;2376;53.544;10.226;2023-03-16T11:40:49;1.47;;;1.03;;
4724;SDS011;2376;53.544;10.226;2023-03-16T11:43:26;1.03;;;0.77;;
4724;SDS011;2376;53.544;10.226;2023-03-16T11:46:13;0.97;;;0.73;;
4724;SDS011;2376;53.544;10.226;2023-03-16T11:48:43;0.93;;;0.90;;
4724;SDS011;2376;53.544;10.226;2023-03-16T11:51:23;1.40;;;1.00;;
4724;SDS011;2376;53.544;10.226;2023-03-16T11:53:59;7.47;;;1.10;;
4724;SDS011;2376;53.544;10.226;2023-03-16T11:56:38;1.03;;;0.80;;
4724;SDS011;2376;53.544;10.226;2023-03-16T11:59:17;2.20;;;1.10;;
4724;SDS011;2376;53.544;10.226;2023-03-16T12:02:01;1.73;;;0.90;;
4724;SDS011;2376;53.544;10.226;2023-03-16T12:04:51;2.20;;;0.80;;
4724;SDS011;2376;53.544;10.226;2023-03-16T12:07:34;0.60;;;0.60;;
4724;SDS011;2376;53.544;10.226;2023-03-16T12:10:19;4.60;;;0.97;;
4724;SDS011;2376;53.544;10.226;2023-03-16T12:12:54;1.33;;;0.70;;
4724;SDS011;2376;53.544;10.226;2023-03-16T12:15:33;1.07;;;0.73;;
4724;SDS011;2376;53.544;10.226;2023-03-16T12:18:09;0.80;;;0.80;;
4724;SDS011;2376;53.544;10.226;2023-03-16T12:20:43;0.83;;;0.83;;
4724;SDS011;2376;53.544;10.226;2023-03-16T12:23:17;1.47;;;0.80;;
4724;SDS011;2376;53.544;10.226;2023-03-16T12:25:47;0.93;;;0.80;;
4724;SDS011;2376;53.544;10.226;2023-03-16T12:28:20;0.73;;;0.73;;
4724;SDS011;2376;53.544;10.226;2023-03-16T12:30:51;1.20;;;0.73;;
4724;SDS011;2376;53.544;10.226;2023-03-16T12:33:32;0.80;;;0.80;;
4724;SDS011;2376;53.544;10.226;2023-03-16T12:36:27;0.70;;;0.70;;
4724;SDS011;2376;53.544;10.226;2023-03-16T12:39:07;1.23;;;0.60;;
4724;SDS011;2376;53.544;10.226;2023-03-16T12:41:40;2.53;;;0.70;;
4724;SDS011;2376;53.544;10.226;2023-03-16T12:44:21;2.00;;;0.80;;
4724;SDS011;2376;53.544;10.226;2023-03-16T12:46:57;0.93;;;0.90;;
4724;SDS011;2376;53.544;10.226;2023-03-16T12:49:30;0.80;;;0.80;;
4724;SDS011;2376;53.544;10.226;2023-03-16T12:51:59;0.97;;;0.70;;
4724;SDS011;2376;53.544;10.226;2023-03-16T12:54:27;3.33;;;0.97;;
4724;SDS011;2376;53.544;10.226;2023-03-16T12:56:58;1.10;;;0.77;;
4724;SDS011;2376;53.544;10.226;2023-03-16T12:59:35;0.70;;;0.70;;
4724;SDS011;2376;53.544;10.226;2023-03-16T13:02:07;1.80;;;0.90;;
4724;SDS011;2376;53.544;10.226;2023-03-16T13:04:41;1.33;;;0.80;;
4724;SDS011;2376;53.544;10.226;2023-03-16T13:07:14;1.00;;;0.80;;
4724;SDS011;2376;53.544;10.226;2023-03-16T13:09:44;1.10;;;1.00;;
4724;SDS011;2376;53.544;10.226;2023-03-16T13:12:23;1.13;;;0.70;;
4724;SDS011;2376;53.544;10.226;2023-03-16T13:14:54;3.70;;;0.80;;
4724;SDS011;2376;53.544;10.226;2023-03-16T13:17:25;1.37;;;0.97;;
4724;SDS011;2376;53.544;10.226;2023-03-16T13:20:04;1.10;;;0.80;;
4724;SDS011;2376;53.544;10.226;2023-03-16T13:22:50;2.30;;;1.00;;
4724;SDS011;2376;53.544;10.226;2023-03-16T13:25:34;1.50;;;0.73;;
4724;SDS011;2376;53.544;10.226;2023-03-16T13:28:10;1.10;;;0.73;;
4724;SDS011;2376;53.544;10.226;2023-03-16T13:30:44;1.40;;;0.70;;
4724;SDS011;2376;53.544;10.226;2023-03-16T13:33:16;0.70;;;0.70;;
4724;SDS011;2376;53.544;10.226;2023-03-16T13:35:46;1.60;;;1.13;;
4724;SDS011;2376;53.544;10.226;2023-03-16T13:38:17;2.87;;;0.90;;
4724;SDS011;2376;53.544;10.226;2023-03-16T13:40:52;1.07;;;0.70;;
4724;SDS011;2376;53.544;10.226;2023-03-16T13:43:21;0.77;;;0.77;;
4724;SDS011;2376;53.544;10.226;2023-03-16T13:45:51;0.70;;;0.70;;
4724;SDS011;2376;53.544;10.226;2023-03-16T13:48:21;1.43;;;1.33;;
4724;SDS011;2376;53.544;10.226;2023-03-16T13:50:51;0.70;;;0.70;;
4724;SDS011;2376;53.544;10.226;2023-03-16T13:53:20;0.80;;;0.60;;
4724;SDS011;2376;53.544;10.226;2023-03-16T13:55:49;1.43;;;0.60;;
4724;SDS011;2376;53.544;10.226;2023-03-16T13:58:20;1.43;;;0.80;;
4724;SDS011;2376;53.544;10.226;2023-03-16T14:00:55;1.63;;;0.80;;
4724;SDS011;2376;53.544;10.226;2023-03-16T14:03:32;1.43;;;0.87;;
4724;SDS011;2376;53.544;10.226;2023-03-16T14:06:20;3.80;;;0.87;;
4724;SDS011;2376;53.544;10.226;2023-03-16T14:09:00;0.70;;;0.70;;
4724;SDS011;2376;53.544;10.226;2023-03-16T14:11:32;1.27;;;0.73;;
4724;SDS011;2376;53.544;10.226;2023-03-16T14:14:22;0.80;;;0.70;;
4724;SDS011;2376;53.544;10.226;2023-03-16T14:17:07;1.20;;;0.77;;
4724;SDS011;2376;53.544;10.226;2023-03-16T14:19:40;1.80;;;1.00;;
4724;SDS011;2376;53.544;10.226;2023-03-16T14:22:21;0.87;;;0.87;;
4724;SDS011;2376;53.544;10.226;2023-03-16T14:24:51;1.10;;;1.00;;
4724;SDS011;2376;53.544;10.226;2023-03-16T14:27:30;1.20;;;0.63;;
4724;SDS011;2376;53.544;10.226;2023-03-16T14:30:13;1.17;;;0.73;;
4724;SDS011;2376;53.544;10.226;2023-03-16T14:32:53;1.03;;;0.77;;
4724;SDS011;2376;53.544;10.226;2023-03-16T14:35:24;0.80;;;0.80;;
4724;SDS011;2376;53.544;10.226;2023-03-16T14:37:53;0.80;;;0.80;;
4724;SDS011;2376;53.544;10.226;2023-03-16T14:40:25;1.13;;;0.83;;
4724;SDS011;2376;53.544;10.226;2023-03-16T14:42:55;0.90;;;0.70;;
4724;SDS011;2376;53.544;10.226;2023-03-16T14:45:25;0.70;;;0.70;;
4724;SDS011;2376;53.544;10.226;2023-03-16T14:48:00;0.80;;;0.80;;
4724;SDS011;2376;53.544;10.226;2023-03-16T14:50:30;0.87;;;0.80;;
4724;SDS011;2376;53.544;10.226;2023-03-16T14:52:57;2.00;;;0.80;;
4724;SDS011;2376;53.544;10.226;2023-03-16T14:55:24;1.63;;;1.20;;
4724;SDS011;2376;53.544;10.226;2023-03-16T14:57:51;5.07;;;1.40;;
4724;SDS011;2376;53.544;10.226;2023-03-16T15:00:19;0.87;;;0.80;;
4724;SDS011;2376;53.544;10.226;2023-03-16T15:02:50;2.00;;;1.10;;
4724;SDS011;2376;53.544;10.226;2023-03-16T15:05:26;3.03;;;1.13;;
4724;SDS011;2376;53.544;10.226;2023-03-16T15:07:57;2.73;;;1.67;;
4724;SDS011;2376;53.544;10.226;2023-03-16T15:10:25;2.20;;;1.10;;
4724;SDS011;2376;53.544;10.226;2023-03-16T15:12:54;1.87;;;1.67;;
4724;SDS011;2376;53.544;10.226;2023-03-16T15:15:28;1.40;;;1.30;;
4724;SDS011;2376;53.544;10.226;2023-03-16T15:17:56;1.40;;;1.00;;
4724;SDS011;2376;53.544;10.226;2023-03-16T15:20:27;4.63;;;1.60;;